sensor_id;sensor_type;location;lat;lon;timestamp;temperature;humidity
2621;DHT22;1320;48.128;11.592;2023-08-08T00:00:07;14.20;99.90
2621;DHT22;1320;48.128;11.592;2023-08-08T00:02:34;14.20;99.90
2621;DHT22;1320;48.128;11.592;2023-08-08T00:04:59;14.30;99.90
2621;DHT22;1320;48.128;11.592;2023-08-08T00:07:25;14.20;99.90
2621;DHT22;1320;48.128;11.592;2023-08-08T00:09:51;14.30;99.90
2621;DHT22;1320;48.128;11.592;2023-08-08T00:12:17;14.30;99.90
2621;DHT22;1320;48.128;11.592;2023-08-08T00:14:42;14.40;99.90
2621;DHT22;1320;48.128;11.592;2023-08-08T00:17:08;14.40;99.90
2621;DHT22;1320;48.128;11.592;2023-08-08T00:19:34;14.40;99.90
2621;DHT22;1320;48.128;11.592;2023-08-08T00:21:59;14.50;99.90
2621;DHT22;1320;48.128;11.592;2023-08-08T00:24:25;14.50;99.90
2621;DHT22;1320;48.128;11.592;2023-08-08T00:26:51;14.50;99.90
2621;DHT22;1320;48.128;11.592;2023-08-08T00:29:16;14.50;99.90
2621;DHT22;1320;48.128;11.592;2023-08-08T00:31:42;14.50;99.90
2621;DHT22;1320;48.128;11.592;2023-08-08T00:34:08;14.50;99.90
2621;DHT22;1320;48.128;11.592;2023-08-08T00:36:33;14.50;99.90
2621;DHT22;1320;48.128;11.592;2023-08-08T00:38:59;14.60;99.90
2621;DHT22;1320;48.128;11.592;2023-08-08T00:41:25;14.60;99.90
2621;DHT22;1320;48.128;11.592;2023-08-08T00:43:51;14.70;99.90
2621;DHT22;1320;48.128;11.592;2023-08-08T00:46:20;14.70;99.90
2621;DHT22;1320;48.128;11.592;2023-08-08T00:48:46;14.70;99.90
2621;DHT22;1320;48.128;11.592;2023-08-08T00:51:11;14.70;99.90
2621;DHT22;1320;48.128;11.592;2023-08-08T00:53:37;14.70;99.90
2621;DHT22;1320;48.128;11.592;2023-08-08T00:56:03;14.70;99.90
2621;DHT22;1320;48.128;11.592;2023-08-08T00:58:28;14.80;99.90
2621;DHT22;1320;48.128;11.592;2023-08-08T01:00:55;14.80;99.90
2621;DHT22;1320;48.128;11.592;2023-08-08T01:03:23;14.80;99.90
2621;DHT22;1320;48.128;11.592;2023-08-08T01:05:53;14.80;99.90
2621;DHT22;1320;48.128;11.592;2023-08-08T01:08:25;14.90;99.90
2621;DHT22;1320;48.128;11.592;2023-08-08T01:10:52;14.90;99.90
2621;DHT22;1320;48.128;11.592;2023-08-08T01:13:22;14.90;99.90
2621;DHT22;1320;48.128;11.592;2023-08-08T01:15:49;14.90;99.90
2621;DHT22;1320;48.128;11.592;2023-08-08T01:18:15;14.90;99.90
2621;DHT22;1320;48.128;11.592;2023-08-08T01:20:43;14.80;99.90
2621;DHT22;1320;48.128;11.592;2023-08-08T01:23:26;14.80;99.90
2621;DHT22;1320;48.128;11.592;2023-08-08T01:25:54;14.70;99.90
2621;DHT22;1320;48.128;11.592;2023-08-08T01:28:23;14.80;99.90
2621;DHT22;1320;48.128;11.592;2023-08-08T01:30:50;14.80;99.90
2621;DHT22;1320;48.128;11.592;2023-08-08T01:33:16;14.70;99.90
2621;DHT22;1320;48.128;11.592;2023-08-08T01:35:48;14.80;99.90
2621;DHT22;1320;48.128;11.592;2023-08-08T01:38:36;14.70;99.90
2621;DHT22;1320;48.128;11.592;2023-08-08T01:41:04;14.70;99.90
2621;DHT22;1320;48.128;11.592;2023-08-08T01:43:30;14.60;99.90
2621;DHT22;1320;48.128;11.592;2023-08-08T01:45:56;14.60;99.90
2621;DHT22;1320;48.128;11.592;2023-08-08T01:48:22;14.60;99.90
2621;DHT22;1320;48.128;11.592;2023-08-08T01:50:48;14.60;99.90
2621;DHT22;1320;48.128;11.592;2023-08-08T01:53:14;14.60;99.90
2621;DHT22;1320;48.128;11.592;2023-08-08T01:55:39;14.60;99.90
2621;DHT22;1320;48.128;11.592;2023-08-08T01:58:05;14.70;99.90
2621;DHT22;1320;48.128;11.592;2023-08-08T02:00:31;14.70;99.90
2621;DHT22;1320;48.128;11.592;2023-08-08T02:02:57;14.70;99.90
2621;DHT22;1320;48.128;11.592;2023-08-08T02:05:23;14.70;99.90
2621;DHT22;1320;48.128;11.592;2023-08-08T02:07:49;14.70;99.90
2621;DHT22;1320;48.128;11.592;2023-08-08T02:10:15;14.70;99.90
2621;DHT22;1320;48.128;11.592;2023-08-08T02:12:41;14.60;99.90
2621;DHT22;1320;48.128;11.592;2023-08-08T02:15:06;14.60;99.90
2621;DHT22;1320;48.128;11.592;2023-08-08T02:17:32;14.60;99.90
2621;DHT22;1320;48.128;11.592;2023-08-08T02:19:58;14.50;99.90
2621;DHT22;1320;48.128;11.592;2023-08-08T02:22:23;14.50;99.90
2621;DHT22;1320;48.128;11.592;2023-08-08T02:24:49;14.40;99.90
2621;DHT22;1320;48.128;11.592;2023-08-08T02:27:15;14.40;99.90
2621;DHT22;1320;48.128;11.592;2023-08-08T02:29:40;14.30;99.90
2621;DHT22;1320;48.128;11.592;2023-08-08T02:32:06;14.30;99.90
2621;DHT22;1320;48.128;11.592;2023-08-08T02:34:32;14.30;99.90
2621;DHT22;1320;48.128;11.592;2023-08-08T02:36:57;14.30;99.90
2621;DHT22;1320;48.128;11.592;2023-08-08T02:39:23;14.30;99.90
2621;DHT22;1320;48.128;11.592;2023-08-08T02:41:49;14.30;99.90
2621;DHT22;1320;48.128;11.592;2023-08-08T02:44:14;14.30;99.90
2621;DHT22;1320;48.128;11.592;2023-08-08T02:46:40;14.30;99.90
2621;DHT22;1320;48.128;11.592;2023-08-08T02:49:05;14.30;99.90
2621;DHT22;1320;48.128;11.592;2023-08-08T02:51:31;14.30;99.90
2621;DHT22;1320;48.128;11.592;2023-08-08T02:53:57;14.30;99.90
2621;DHT22;1320;48.128;11.592;2023-08-08T02:56:22;14.30;99.90
2621;DHT22;1320;48.128;11.592;2023-08-08T02:58:48;14.30;99.90
2621;DHT22;1320;48.128;11.592;2023-08-08T03:01:14;14.30;99.90
2621;DHT22;1320;48.128;11.592;2023-08-08T03:03:41;14.20;99.90
2621;DHT22;1320;48.128;11.592;2023-08-08T03:06:07;14.30;99.90
2621;DHT22;1320;48.128;11.592;2023-08-08T03:08:32;14.30;99.90
2621;DHT22;1320;48.128;11.592;2023-08-08T03:10:58;14.30;99.90
2621;DHT22;1320;48.128;11.592;2023-08-08T03:13:24;14.20;99.90
2621;DHT22;1320;48.128;11.592;2023-08-08T03:15:49;14.20;99.90
2621;DHT22;1320;48.128;11.592;2023-08-08T03:18:15;14.20;99.90
2621;DHT22;1320;48.128;11.592;2023-08-08T03:20:40;14.20;99.90
2621;DHT22;1320;48.128;11.592;2023-08-08T03:23:06;14.10;99.90
2621;DHT22;1320;48.128;11.592;2023-08-08T03:25:32;14.10;99.90
2621;DHT22;1320;48.128;11.592;2023-08-08T03:27:57;14.20;99.90
2621;DHT22;1320;48.128;11.592;2023-08-08T03:30:23;14.10;99.90
2621;DHT22;1320;48.128;11.592;2023-08-08T03:32:49;14.20;99.90
2621;DHT22;1320;48.128;11.592;2023-08-08T03:35:14;14.20;99.90
2621;DHT22;1320;48.128;11.592;2023-08-08T03:37:41;14.20;99.90
2621;DHT22;1320;48.128;11.592;2023-08-08T03:40:07;14.30;99.90
2621;DHT22;1320;48.128;11.592;2023-08-08T03:42:33;14.30;99.90
2621;DHT22;1320;48.128;11.592;2023-08-08T03:44:59;14.30;99.90
2621;DHT22;1320;48.128;11.592;2023-08-08T03:47:25;14.30;99.90
2621;DHT22;1320;48.128;11.592;2023-08-08T03:49:51;14.40;99.90
2621;DHT22;1320;48.128;11.592;2023-08-08T03:52:20;14.40;99.90
2621;DHT22;1320;48.128;11.592;2023-08-08T03:54:46;14.40;99.90
2621;DHT22;1320;48.128;11.592;2023-08-08T03:57:12;14.40;99.90
2621;DHT22;1320;48.128;11.592;2023-08-08T03:59:38;14.40;99.90
2621;DHT22;1320;48.128;11.592;2023-08-08T04:02:03;14.40;99.90
2621;DHT22;1320;48.128;11.592;2023-08-08T04:04:29;14.40;99.90
2621;DHT22;1320;48.128;11.592;2023-08-08T04:06:55;14.40;99.90
2621;DHT22;1320;48.128;11.592;2023-08-08T04:09:21;14.40;99.90
2621;DHT22;1320;48.128;11.592;2023-08-08T04:11:47;14.40;99.90
2621;DHT22;1320;48.128;11.592;2023-08-08T04:14:12;14.40;99.90
2621;DHT22;1320;48.128;11.592;2023-08-08T04:16:38;14.50;99.90
2621;DHT22;1320;48.128;11.592;2023-08-08T04:19:04;14.50;99.90
2621;DHT22;1320;48.128;11.592;2023-08-08T04:21:30;14.60;99.90
2621;DHT22;1320;48.128;11.592;2023-08-08T04:23:58;14.60;99.90
2621;DHT22;1320;48.128;11.592;2023-08-08T04:26:23;14.60;99.90
2621;DHT22;1320;48.128;11.592;2023-08-08T04:28:49;14.60;99.90
2621;DHT22;1320;48.128;11.592;2023-08-08T04:31:15;14.60;99.90
2621;DHT22;1320;48.128;11.592;2023-08-08T04:33:40;14.60;99.90
2621;DHT22;1320;48.128;11.592;2023-08-08T04:36:06;14.60;99.90
2621;DHT22;1320;48.128;11.592;2023-08-08T04:38:31;14.60;99.90
2621;DHT22;1320;48.128;11.592;2023-08-08T04:40:57;14.60;99.90
2621;DHT22;1320;48.128;11.592;2023-08-08T04:43:23;14.70;99.90
2621;DHT22;1320;48.128;11.592;2023-08-08T04:45:48;14.70;99.90
2621;DHT22;1320;48.128;11.592;2023-08-08T04:48:14;14.70;99.90
2621;DHT22;1320;48.128;11.592;2023-08-08T04:50:40;14.70;99.90
2621;DHT22;1320;48.128;11.592;2023-08-08T04:53:06;14.70;99.90
2621;DHT22;1320;48.128;11.592;2023-08-08T04:55:32;14.70;99.90
2621;DHT22;1320;48.128;11.592;2023-08-08T04:57:57;14.80;99.90
2621;DHT22;1320;48.128;11.592;2023-08-08T05:00:25;14.80;99.90
2621;DHT22;1320;48.128;11.592;2023-08-08T05:02:51;14.90;99.90
2621;DHT22;1320;48.128;11.592;2023-08-08T05:05:16;14.90;99.90
2621;DHT22;1320;48.128;11.592;2023-08-08T05:07:42;15.00;99.90
2621;DHT22;1320;48.128;11.592;2023-08-08T05:10:08;15.00;99.90
2621;DHT22;1320;48.128;11.592;2023-08-08T05:12:34;15.10;99.90
2621;DHT22;1320;48.128;11.592;2023-08-08T05:14:59;15.10;99.90
2621;DHT22;1320;48.128;11.592;2023-08-08T05:17:25;15.10;99.90
2621;DHT22;1320;48.128;11.592;2023-08-08T05:19:50;15.10;99.90
2621;DHT22;1320;48.128;11.592;2023-08-08T05:22:16;15.10;99.90
2621;DHT22;1320;48.128;11.592;2023-08-08T05:24:42;15.10;99.90
2621;DHT22;1320;48.128;11.592;2023-08-08T05:27:07;15.10;99.90
2621;DHT22;1320;48.128;11.592;2023-08-08T05:29:33;15.10;99.90
2621;DHT22;1320;48.128;11.592;2023-08-08T05:31:59;15.20;99.90
2621;DHT22;1320;48.128;11.592;2023-08-08T05:34:25;15.20;99.90
2621;DHT22;1320;48.128;11.592;2023-08-08T05:36:50;15.30;99.90
2621;DHT22;1320;48.128;11.592;2023-08-08T05:39:16;15.30;99.90
2621;DHT22;1320;48.128;11.592;2023-08-08T05:41:42;15.40;99.90
2621;DHT22;1320;48.128;11.592;2023-08-08T05:44:07;15.50;99.90
2621;DHT22;1320;48.128;11.592;2023-08-08T05:46:33;15.60;99.90
2621;DHT22;1320;48.128;11.592;2023-08-08T05:48:58;15.60;99.90
2621;DHT22;1320;48.128;11.592;2023-08-08T05:51:24;15.70;99.90
2621;DHT22;1320;48.128;11.592;2023-08-08T05:53:50;15.70;99.90
2621;DHT22;1320;48.128;11.592;2023-08-08T05:56:15;15.70;99.90
2621;DHT22;1320;48.128;11.592;2023-08-08T05:58:41;15.70;99.90
2621;DHT22;1320;48.128;11.592;2023-08-08T06:01:07;15.80;99.90
2621;DHT22;1320;48.128;11.592;2023-08-08T06:03:35;15.80;99.90
2621;DHT22;1320;48.128;11.592;2023-08-08T06:06:03;15.80;99.90
2621;DHT22;1320;48.128;11.592;2023-08-08T06:08:28;15.80;99.90
2621;DHT22;1320;48.128;11.592;2023-08-08T06:10:54;15.80;99.90
2621;DHT22;1320;48.128;11.592;2023-08-08T06:13:20;15.90;99.90
2621;DHT22;1320;48.128;11.592;2023-08-08T06:15:45;15.90;99.90
2621;DHT22;1320;48.128;11.592;2023-08-08T06:18:11;15.90;99.90
2621;DHT22;1320;48.128;11.592;2023-08-08T06:20:37;15.90;99.90
2621;DHT22;1320;48.128;11.592;2023-08-08T06:23:02;15.90;99.90
2621;DHT22;1320;48.128;11.592;2023-08-08T06:25:28;15.90;99.90
2621;DHT22;1320;48.128;11.592;2023-08-08T06:27:55;15.90;99.90
2621;DHT22;1320;48.128;11.592;2023-08-08T06:30:21;15.90;99.90
2621;DHT22;1320;48.128;11.592;2023-08-08T06:32:47;16.00;99.90
2621;DHT22;1320;48.128;11.592;2023-08-08T06:35:12;15.90;99.90
2621;DHT22;1320;48.128;11.592;2023-08-08T06:37:38;15.90;99.90
2621;DHT22;1320;48.128;11.592;2023-08-08T06:40:04;16.00;99.90
2621;DHT22;1320;48.128;11.592;2023-08-08T06:42:32;16.00;99.90
2621;DHT22;1320;48.128;11.592;2023-08-08T06:44:58;16.10;99.90
2621;DHT22;1320;48.128;11.592;2023-08-08T06:47:23;16.10;99.90
2621;DHT22;1320;48.128;11.592;2023-08-08T06:49:49;16.10;99.90
2621;DHT22;1320;48.128;11.592;2023-08-08T06:52:15;16.20;99.90
2621;DHT22;1320;48.128;11.592;2023-08-08T06:54:40;16.30;99.90
2621;DHT22;1320;48.128;11.592;2023-08-08T06:57:06;16.40;99.90
2621;DHT22;1320;48.128;11.592;2023-08-08T06:59:32;16.50;99.90
2621;DHT22;1320;48.128;11.592;2023-08-08T07:01:58;16.60;99.90
2621;DHT22;1320;48.128;11.592;2023-08-08T07:04:24;16.70;99.90
2621;DHT22;1320;48.128;11.592;2023-08-08T07:06:49;16.90;99.90
2621;DHT22;1320;48.128;11.592;2023-08-08T07:09:15;17.00;99.90
2621;DHT22;1320;48.128;11.592;2023-08-08T07:11:40;17.20;99.90
2621;DHT22;1320;48.128;11.592;2023-08-08T07:14:06;17.30;99.90
2621;DHT22;1320;48.128;11.592;2023-08-08T07:16:32;17.40;99.90
2621;DHT22;1320;48.128;11.592;2023-08-08T07:18:57;17.60;99.90
2621;DHT22;1320;48.128;11.592;2023-08-08T07:21:23;17.70;99.90
2621;DHT22;1320;48.128;11.592;2023-08-08T07:23:49;17.80;99.90
2621;DHT22;1320;48.128;11.592;2023-08-08T07:26:14;17.90;99.90
2621;DHT22;1320;48.128;11.592;2023-08-08T07:28:40;18.10;99.90
2621;DHT22;1320;48.128;11.592;2023-08-08T07:31:06;18.20;99.90
2621;DHT22;1320;48.128;11.592;2023-08-08T07:33:31;18.30;99.90
2621;DHT22;1320;48.128;11.592;2023-08-08T07:35:57;18.30;99.90
2621;DHT22;1320;48.128;11.592;2023-08-08T07:38:23;18.50;99.90
2621;DHT22;1320;48.128;11.592;2023-08-08T07:40:48;18.60;99.90
2621;DHT22;1320;48.128;11.592;2023-08-08T07:43:14;18.60;99.90
2621;DHT22;1320;48.128;11.592;2023-08-08T07:45:41;18.60;99.90
2621;DHT22;1320;48.128;11.592;2023-08-08T07:48:14;18.50;99.90
2621;DHT22;1320;48.128;11.592;2023-08-08T07:50:39;18.60;99.90
2621;DHT22;1320;48.128;11.592;2023-08-08T07:53:05;18.60;99.90
2621;DHT22;1320;48.128;11.592;2023-08-08T07:55:30;18.60;99.90
2621;DHT22;1320;48.128;11.592;2023-08-08T07:57:56;18.70;99.90
2621;DHT22;1320;48.128;11.592;2023-08-08T08:00:21;18.80;99.90
2621;DHT22;1320;48.128;11.592;2023-08-08T08:02:47;18.90;99.90
2621;DHT22;1320;48.128;11.592;2023-08-08T08:05:13;19.10;99.90
2621;DHT22;1320;48.128;11.592;2023-08-08T08:07:39;19.20;99.90
2621;DHT22;1320;48.128;11.592;2023-08-08T08:10:07;19.30;99.90
2621;DHT22;1320;48.128;11.592;2023-08-08T08:12:34;19.50;99.90
2621;DHT22;1320;48.128;11.592;2023-08-08T08:15:01;19.90;99.90
2621;DHT22;1320;48.128;11.592;2023-08-08T08:17:26;20.40;99.30
2621;DHT22;1320;48.128;11.592;2023-08-08T08:19:53;21.00;97.90
2621;DHT22;1320;48.128;11.592;2023-08-08T08:22:19;21.60;96.70
2621;DHT22;1320;48.128;11.592;2023-08-08T08:24:44;22.10;95.80
2621;DHT22;1320;48.128;11.592;2023-08-08T08:27:11;22.50;95.30
2621;DHT22;1320;48.128;11.592;2023-08-08T08:29:37;22.70;95.50
2621;DHT22;1320;48.128;11.592;2023-08-08T08:32:03;22.90;94.90
2621;DHT22;1320;48.128;11.592;2023-08-08T08:34:29;23.10;94.90
2621;DHT22;1320;48.128;11.592;2023-08-08T08:36:54;23.30;93.70
2621;DHT22;1320;48.128;11.592;2023-08-08T08:39:20;23.40;93.30
2621;DHT22;1320;48.128;11.592;2023-08-08T08:41:49;23.50;93.30
2621;DHT22;1320;48.128;11.592;2023-08-08T08:44:18;23.50;93.00
2621;DHT22;1320;48.128;11.592;2023-08-08T08:46:47;23.80;92.80
2621;DHT22;1320;48.128;11.592;2023-08-08T08:49:14;24.10;92.00
2621;DHT22;1320;48.128;11.592;2023-08-08T08:51:40;24.30;92.20
2621;DHT22;1320;48.128;11.592;2023-08-08T08:54:05;24.60;92.00
2621;DHT22;1320;48.128;11.592;2023-08-08T08:56:31;25.00;91.40
2621;DHT22;1320;48.128;11.592;2023-08-08T08:58:59;25.20;92.00
2621;DHT22;1320;48.128;11.592;2023-08-08T09:01:25;25.50;90.70
2621;DHT22;1320;48.128;11.592;2023-08-08T09:03:52;25.50;89.90
2621;DHT22;1320;48.128;11.592;2023-08-08T09:06:18;25.40;89.60
2621;DHT22;1320;48.128;11.592;2023-08-08T09:08:46;25.20;89.30
2621;DHT22;1320;48.128;11.592;2023-08-08T09:11:12;24.90;89.50
2621;DHT22;1320;48.128;11.592;2023-08-08T09:13:39;24.70;90.50
2621;DHT22;1320;48.128;11.592;2023-08-08T09:16:06;24.70;90.20
2621;DHT22;1320;48.128;11.592;2023-08-08T09:18:32;24.50;90.30
2621;DHT22;1320;48.128;11.592;2023-08-08T09:20:59;24.50;90.00
2621;DHT22;1320;48.128;11.592;2023-08-08T09:23:25;24.40;89.30
2621;DHT22;1320;48.128;11.592;2023-08-08T09:25:50;24.40;88.90
2621;DHT22;1320;48.128;11.592;2023-08-08T09:28:17;24.50;89.70
2621;DHT22;1320;48.128;11.592;2023-08-08T09:30:43;24.60;88.20
2621;DHT22;1320;48.128;11.592;2023-08-08T09:33:09;24.70;90.00
2621;DHT22;1320;48.128;11.592;2023-08-08T09:35:38;24.90;87.30
2621;DHT22;1320;48.128;11.592;2023-08-08T09:38:04;25.00;87.70
2621;DHT22;1320;48.128;11.592;2023-08-08T09:40:30;25.30;85.10
2621;DHT22;1320;48.128;11.592;2023-08-08T09:42:57;25.30;85.80
2621;DHT22;1320;48.128;11.592;2023-08-08T09:45:23;25.20;84.90
2621;DHT22;1320;48.128;11.592;2023-08-08T09:47:52;24.80;84.80
2621;DHT22;1320;48.128;11.592;2023-08-08T09:50:19;24.50;86.80
2621;DHT22;1320;48.128;11.592;2023-08-08T09:52:46;24.40;88.50
2621;DHT22;1320;48.128;11.592;2023-08-08T09:55:13;24.60;86.60
2621;DHT22;1320;48.128;11.592;2023-08-08T09:57:39;24.80;85.70
2621;DHT22;1320;48.128;11.592;2023-08-08T10:00:06;24.90;85.60
2621;DHT22;1320;48.128;11.592;2023-08-08T10:02:36;24.80;86.10
2621;DHT22;1320;48.128;11.592;2023-08-08T10:05:04;24.70;87.70
2621;DHT22;1320;48.128;11.592;2023-08-08T10:07:29;24.60;86.00
2621;DHT22;1320;48.128;11.592;2023-08-08T10:09:56;24.50;86.00
2621;DHT22;1320;48.128;11.592;2023-08-08T10:12:23;24.40;87.70
2621;DHT22;1320;48.128;11.592;2023-08-08T10:14:51;24.40;88.00
2621;DHT22;1320;48.128;11.592;2023-08-08T10:17:19;24.20;88.10
2621;DHT22;1320;48.128;11.592;2023-08-08T10:19:55;24.10;88.30
2621;DHT22;1320;48.128;11.592;2023-08-08T10:22:24;24.00;87.60
2621;DHT22;1320;48.128;11.592;2023-08-08T10:24:54;23.70;87.80
2621;DHT22;1320;48.128;11.592;2023-08-08T10:27:28;23.50;89.30
2621;DHT22;1320;48.128;11.592;2023-08-08T10:30:09;23.50;88.20
2621;DHT22;1320;48.128;11.592;2023-08-08T10:32:43;23.50;89.00
2621;DHT22;1320;48.128;11.592;2023-08-08T10:35:11;23.50;86.50
2621;DHT22;1320;48.128;11.592;2023-08-08T10:37:37;23.40;87.60
2621;DHT22;1320;48.128;11.592;2023-08-08T10:40:05;23.50;88.40
2621;DHT22;1320;48.128;11.592;2023-08-08T10:42:32;23.80;85.80
2621;DHT22;1320;48.128;11.592;2023-08-08T10:45:00;23.90;84.80
2621;DHT22;1320;48.128;11.592;2023-08-08T10:47:30;23.90;84.90
2621;DHT22;1320;48.128;11.592;2023-08-08T10:50:07;24.00;84.30
2621;DHT22;1320;48.128;11.592;2023-08-08T10:52:50;24.00;85.20
2621;DHT22;1320;48.128;11.592;2023-08-08T10:55:25;24.10;82.40
2621;DHT22;1320;48.128;11.592;2023-08-08T11:00:35;23.90;82.00
2621;DHT22;1320;48.128;11.592;2023-08-08T11:03:02;23.80;83.10
2621;DHT22;1320;48.128;11.592;2023-08-08T11:05:31;23.70;83.10
2621;DHT22;1320;48.128;11.592;2023-08-08T11:07:58;23.60;82.80
2621;DHT22;1320;48.128;11.592;2023-08-08T11:10:24;23.50;82.60
2621;DHT22;1320;48.128;11.592;2023-08-08T11:13:00;23.30;83.20
2621;DHT22;1320;48.128;11.592;2023-08-08T11:15:26;23.10;85.70
2621;DHT22;1320;48.128;11.592;2023-08-08T11:17:54;23.20;84.50
2621;DHT22;1320;48.128;11.592;2023-08-08T11:20:21;23.30;84.90
2621;DHT22;1320;48.128;11.592;2023-08-08T11:22:51;23.60;83.90
2621;DHT22;1320;48.128;11.592;2023-08-08T11:25:18;23.90;82.40
2621;DHT22;1320;48.128;11.592;2023-08-08T11:27:53;24.20;83.10
2621;DHT22;1320;48.128;11.592;2023-08-08T11:30:20;24.30;81.40
2621;DHT22;1320;48.128;11.592;2023-08-08T11:32:47;24.40;80.90
2621;DHT22;1320;48.128;11.592;2023-08-08T11:35:21;24.50;80.00
2621;DHT22;1320;48.128;11.592;2023-08-08T11:37:47;24.50;80.20
2621;DHT22;1320;48.128;11.592;2023-08-08T11:40:14;24.60;79.40
2621;DHT22;1320;48.128;11.592;2023-08-08T11:42:41;24.70;80.10
2621;DHT22;1320;48.128;11.592;2023-08-08T11:45:11;24.80;79.20
2621;DHT22;1320;48.128;11.592;2023-08-08T11:47:41;24.90;78.80
2621;DHT22;1320;48.128;11.592;2023-08-08T11:50:09;24.80;77.90
2621;DHT22;1320;48.128;11.592;2023-08-08T11:52:39;24.90;79.40
2621;DHT22;1320;48.128;11.592;2023-08-08T11:55:06;25.00;77.80
2621;DHT22;1320;48.128;11.592;2023-08-08T11:57:33;25.10;75.40
2621;DHT22;1320;48.128;11.592;2023-08-08T11:59:58;25.20;75.80
2621;DHT22;1320;48.128;11.592;2023-08-08T12:02:26;25.20;76.40
2621;DHT22;1320;48.128;11.592;2023-08-08T12:04:52;25.20;76.10
2621;DHT22;1320;48.128;11.592;2023-08-08T12:07:18;25.30;74.90
2621;DHT22;1320;48.128;11.592;2023-08-08T12:09:47;25.30;74.20
2621;DHT22;1320;48.128;11.592;2023-08-08T12:12:13;25.30;74.70
2621;DHT22;1320;48.128;11.592;2023-08-08T12:14:39;25.40;75.20
2621;DHT22;1320;48.128;11.592;2023-08-08T12:17:07;25.50;74.30
2621;DHT22;1320;48.128;11.592;2023-08-08T12:19:34;25.60;73.70
2621;DHT22;1320;48.128;11.592;2023-08-08T12:22:00;25.70;74.80
2621;DHT22;1320;48.128;11.592;2023-08-08T12:24:25;25.80;73.70
2621;DHT22;1320;48.128;11.592;2023-08-08T12:26:51;25.90;74.30
2621;DHT22;1320;48.128;11.592;2023-08-08T12:29:22;26.10;75.20
2621;DHT22;1320;48.128;11.592;2023-08-08T12:31:48;26.20;72.00
2621;DHT22;1320;48.128;11.592;2023-08-08T12:37:36;26.20;73.60
2621;DHT22;1320;48.128;11.592;2023-08-08T12:40:02;26.40;72.00
2621;DHT22;1320;48.128;11.592;2023-08-08T12:42:28;26.50;70.50
2621;DHT22;1320;48.128;11.592;2023-08-08T12:44:54;26.50;68.40
2621;DHT22;1320;48.128;11.592;2023-08-08T12:47:19;26.40;69.80
2621;DHT22;1320;48.128;11.592;2023-08-08T12:49:46;26.30;70.60
2621;DHT22;1320;48.128;11.592;2023-08-08T12:52:12;26.10;73.10
2621;DHT22;1320;48.128;11.592;2023-08-08T12:54:37;26.10;71.50
2621;DHT22;1320;48.128;11.592;2023-08-08T12:57:03;26.20;68.90
2621;DHT22;1320;48.128;11.592;2023-08-08T12:59:29;26.10;69.60
2621;DHT22;1320;48.128;11.592;2023-08-08T13:01:55;26.00;71.00
2621;DHT22;1320;48.128;11.592;2023-08-08T13:04:20;26.00;70.90
2621;DHT22;1320;48.128;11.592;2023-08-08T13:06:48;26.00;71.40
2621;DHT22;1320;48.128;11.592;2023-08-08T13:09:13;26.00;69.20
2621;DHT22;1320;48.128;11.592;2023-08-08T13:11:41;26.00;70.60
2621;DHT22;1320;48.128;11.592;2023-08-08T13:14:07;26.00;70.90
2621;DHT22;1320;48.128;11.592;2023-08-08T13:16:32;25.90;71.20
2621;DHT22;1320;48.128;11.592;2023-08-08T13:18:58;25.90;69.80
2621;DHT22;1320;48.128;11.592;2023-08-08T13:21:24;25.80;68.40
2621;DHT22;1320;48.128;11.592;2023-08-08T13:23:49;25.60;69.50
2621;DHT22;1320;48.128;11.592;2023-08-08T13:26:15;25.50;69.70
2621;DHT22;1320;48.128;11.592;2023-08-08T13:28:41;25.50;70.40
2621;DHT22;1320;48.128;11.592;2023-08-08T13:31:08;25.70;71.20
2621;DHT22;1320;48.128;11.592;2023-08-08T13:33:34;25.80;71.00
2621;DHT22;1320;48.128;11.592;2023-08-08T13:36:00;26.00;69.90
2621;DHT22;1320;48.128;11.592;2023-08-08T13:38:26;26.20;69.00
2621;DHT22;1320;48.128;11.592;2023-08-08T13:40:51;26.40;69.20
2621;DHT22;1320;48.128;11.592;2023-08-08T13:43:17;26.60;71.70
2621;DHT22;1320;48.128;11.592;2023-08-08T13:45:43;26.90;70.90
2621;DHT22;1320;48.128;11.592;2023-08-08T13:48:09;27.20;70.30
2621;DHT22;1320;48.128;11.592;2023-08-08T13:50:34;27.50;69.40
2621;DHT22;1320;48.128;11.592;2023-08-08T13:53:00;27.80;67.40
2621;DHT22;1320;48.128;11.592;2023-08-08T13:55:25;27.90;67.40
2621;DHT22;1320;48.128;11.592;2023-08-08T13:57:52;27.80;67.20
2621;DHT22;1320;48.128;11.592;2023-08-08T14:00:20;27.80;68.40
2621;DHT22;1320;48.128;11.592;2023-08-08T14:02:46;27.80;68.10
2621;DHT22;1320;48.128;11.592;2023-08-08T14:05:11;27.90;67.10
2621;DHT22;1320;48.128;11.592;2023-08-08T14:07:37;27.90;67.90
2621;DHT22;1320;48.128;11.592;2023-08-08T14:10:06;28.00;66.80
2621;DHT22;1320;48.128;11.592;2023-08-08T14:12:34;28.10;67.20
2621;DHT22;1320;48.128;11.592;2023-08-08T14:15:00;28.20;65.60
2621;DHT22;1320;48.128;11.592;2023-08-08T14:17:26;28.30;67.10
2621;DHT22;1320;48.128;11.592;2023-08-08T14:19:52;28.30;63.30
2621;DHT22;1320;48.128;11.592;2023-08-08T14:22:18;28.20;64.50
2621;DHT22;1320;48.128;11.592;2023-08-08T14:24:43;28.10;65.20
2621;DHT22;1320;48.128;11.592;2023-08-08T14:27:09;28.00;66.40
2621;DHT22;1320;48.128;11.592;2023-08-08T14:29:35;27.80;65.80
2621;DHT22;1320;48.128;11.592;2023-08-08T14:32:01;27.50;66.80
2621;DHT22;1320;48.128;11.592;2023-08-08T14:34:30;27.30;67.80
2621;DHT22;1320;48.128;11.592;2023-08-08T14:36:56;27.00;68.30
2621;DHT22;1320;48.128;11.592;2023-08-08T14:39:23;27.00;70.30
2621;DHT22;1320;48.128;11.592;2023-08-08T14:41:48;27.20;70.10
2621;DHT22;1320;48.128;11.592;2023-08-08T14:44:20;27.40;71.20
2621;DHT22;1320;48.128;11.592;2023-08-08T14:46:46;27.80;67.80
2621;DHT22;1320;48.128;11.592;2023-08-08T14:49:11;28.00;68.00
2621;DHT22;1320;48.128;11.592;2023-08-08T14:51:37;28.20;66.90
2621;DHT22;1320;48.128;11.592;2023-08-08T14:54:03;28.10;68.50
2621;DHT22;1320;48.128;11.592;2023-08-08T14:56:29;28.20;67.40
2621;DHT22;1320;48.128;11.592;2023-08-08T14:58:54;28.30;65.70
2621;DHT22;1320;48.128;11.592;2023-08-08T15:01:20;28.30;67.20
2621;DHT22;1320;48.128;11.592;2023-08-08T15:03:46;28.30;66.10
2621;DHT22;1320;48.128;11.592;2023-08-08T15:06:11;28.30;66.50
2621;DHT22;1320;48.128;11.592;2023-08-08T15:08:37;28.40;65.60
2621;DHT22;1320;48.128;11.592;2023-08-08T15:11:03;28.40;66.20
2621;DHT22;1320;48.128;11.592;2023-08-08T15:13:28;28.30;65.70
2621;DHT22;1320;48.128;11.592;2023-08-08T15:15:54;28.30;65.30
2621;DHT22;1320;48.128;11.592;2023-08-08T15:18:20;28.10;65.80
2621;DHT22;1320;48.128;11.592;2023-08-08T15:20:46;28.00;67.20
2621;DHT22;1320;48.128;11.592;2023-08-08T15:23:11;28.20;68.00
2621;DHT22;1320;48.128;11.592;2023-08-08T15:25:40;28.50;65.40
2621;DHT22;1320;48.128;11.592;2023-08-08T15:28:07;28.60;65.90
2621;DHT22;1320;48.128;11.592;2023-08-08T15:30:32;28.70;66.70
2621;DHT22;1320;48.128;11.592;2023-08-08T15:32:58;28.80;65.10
2621;DHT22;1320;48.128;11.592;2023-08-08T15:35:24;29.00;65.50
2621;DHT22;1320;48.128;11.592;2023-08-08T15:37:50;29.00;64.40
2621;DHT22;1320;48.128;11.592;2023-08-08T15:40:16;28.80;64.60
2621;DHT22;1320;48.128;11.592;2023-08-08T15:42:41;28.30;65.60
2621;DHT22;1320;48.128;11.592;2023-08-08T15:45:12;28.00;66.60